Rockwall's Hourly Summary for Tuesday, July 10, 2018
Hour Temp
(f)
RH
(%)
Solar Rad.
(MJ/m2)
Rainfall
(in)
Wind
(mph)
7/10/2018 12:00 AM 77 81 0 0 0.91
7/10/2018 1:00 AM 76 88 0 0 1.54
7/10/2018 2:00 AM 76 87 0 0 1.99
7/10/2018 3:00 AM 75 88 0 0 0.79
7/10/2018 4:00 AM 75 89 0 0 2.65
7/10/2018 5:00 AM 74 94 0 0 0.38
7/10/2018 6:00 AM 74 95 0 0 2.02
7/10/2018 7:00 AM 74 94 0.02 0 1.5
7/10/2018 8:00 AM 74 90 0.16 0 2.75
7/10/2018 9:00 AM 76 79 0.49 0 2.19
7/10/2018 10:00 AM 79 73 1.28 0 2.47
7/10/2018 11:00 AM 82 69 2.35 0 2.39
7/10/2018 12:00 PM 86 60 2.76 0 1.33
7/10/2018 1:00 PM 89 50 2.87 0 1.33
7/10/2018 2:00 PM 91 46 2.24 0 0.75
7/10/2018 3:00 PM 92 42 2.44 0 1.08
7/10/2018 4:00 PM 94 38 2.67 0 2.15
7/10/2018 5:00 PM 86 48 0.54 0 2.76
7/10/2018 6:00 PM 83 65 0.51 0 1
7/10/2018 7:00 PM 84 63 0.4 0 0.86
7/10/2018 8:00 PM 84 58 0.2 0 0.25
7/10/2018 9:00 PM 83 59 0.02 0 0.2
7/10/2018 10:00 PM 82 64 0 0 0.89
7/10/2018 11:00 PM 79 71 0 0 0
Data Summary 81 70 18.95 0.00 1.42